Terminal Aerodrome Forecast
Issued by NWS St Louis, MO

Home | Current Version | Previous Version | Text Only | Print | Product List | Glossary On
Versions: 1 2 3 4 5 6 7 8 9 10 11 12 13 14 15 16 17 18 19 20 21
000
FTUS43 KLSX 270115 AAB
TAFCOU
TAF AMD
KCOU 270115Z 2701/2724 27008KT 6SM -SHRA VCTS BKN060CB
      TEMPO 2701/2703 2SM TSRA BKN030CB
     FM270400 14007KT P6SM OVC080
     FM271800 15008KT P6SM VCSH SCT030 OVC080=

USA.gov is the U.S. government's official web portal to all federal, state and local government web resources and services.